createdAt,value
2022-12-05T00:03:46.254Z,97049.66
2022-12-05T00:08:50.695Z,97070.22
2022-12-05T00:13:54.394Z,97070.06
2022-12-05T00:18:57.641Z,97040.97
2022-12-05T00:24:02.610Z,97044.41
2022-12-05T00:29:05.836Z,97063.38
2022-12-05T00:34:08.714Z,97025.50
2022-12-05T00:39:14.246Z,97023.72
2022-12-05T00:44:16.948Z,97013.34
2022-12-05T00:49:19.687Z,97001.31
2022-12-05T00:54:23.886Z,96997.84
2022-12-05T00:59:26.613Z,96990.06
2022-12-05T01:04:29.351Z,96989.22
2022-12-05T01:09:33.452Z,96995.13
2022-12-05T01:14:36.223Z,96978.81
2022-12-05T01:19:38.935Z,96973.63
2022-12-05T01:24:42.988Z,96982.19
2022-12-05T01:29:45.835Z,96972.72
2022-12-05T01:34:48.723Z,96948.59
2022-12-05T01:39:52.967Z,96951.13
2022-12-05T01:45:03.020Z,96957.06
2022-12-05T01:50:07.359Z,96948.44
2022-12-05T01:55:13.999Z,96953.38
2022-12-05T02:00:19.648Z,96946.47
2022-12-05T02:05:24.533Z,96969.94
2022-12-05T02:10:30.092Z,96946.63
2022-12-05T02:15:38.762Z,96976.03
2022-12-05T02:20:46.921Z,96991.72
2022-12-05T02:26:05.991Z,96947.19
2022-12-05T02:31:12.080Z,96938.44
2022-12-05T02:36:19.178Z,96890.31
2022-12-05T02:41:28.117Z,96892.00
2022-12-05T02:46:33.640Z,96865.28
2022-12-05T02:51:39.568Z,96843.63
2022-12-05T02:56:44.384Z,96833.22
2022-12-05T03:01:49.781Z,96830.66
2022-12-05T03:06:55.212Z,96828.94
2022-12-05T03:12:05.675Z,96817.69
2022-12-05T03:17:12.946Z,96791.72
2022-12-05T03:22:19.454Z,96776.19
2022-12-05T03:27:24.188Z,96781.25
2022-12-05T03:32:32.889Z,96765.72
2022-12-05T03:37:43.895Z,96739.78
2022-12-05T03:42:53.124Z,96727.78
2022-12-05T03:48:01.672Z,96716.53
2022-12-05T03:53:22.207Z,96728.34
2022-12-05T03:58:29.111Z,96736.09
2022-12-05T04:03:40.189Z,96686.97
2022-12-05T04:08:46.308Z,96677.56
2022-12-05T04:13:50.623Z,96669.00
2022-12-05T04:18:57.721Z,96667.22
2022-12-05T04:24:17.876Z,96677.66
2022-12-05T04:29:28.360Z,96674.03
2022-12-05T04:34:33.495Z,96652.47
2022-12-05T04:39:40.754Z,96646.41
2022-12-05T04:44:47.150Z,96659.28
2022-12-05T04:49:53.987Z,96641.97
2022-12-05T04:55:01.145Z,96617.03
2022-12-05T05:00:04.472Z,96606.59
2022-12-05T05:05:14.273Z,96597.06
2022-12-05T05:10:21.175Z,96610.75
2022-12-05T05:15:23.972Z,96599.44
2022-12-05T05:20:28.364Z,96583.84
2022-12-05T05:25:31.280Z,96542.44
2022-12-05T05:30:33.982Z,96544.19
2022-12-05T05:35:39.034Z,96517.34
2022-12-05T05:40:41.768Z,96537.94
2022-12-05T05:45:44.553Z,96505.22
2022-12-05T05:50:48.653Z,96486.16
2022-12-05T05:55:51.510Z,96464.53
2022-12-05T06:00:54.237Z,96474.00
2022-12-05T06:05:59.655Z,96421.06
2022-12-05T06:11:06.145Z,96401.22
2022-12-05T06:16:10.654Z,96398.63
2022-12-05T06:21:16.485Z,96373.50
2022-12-05T06:26:19.808Z,96329.44
2022-12-05T06:31:24.452Z,96366.38
2022-12-05T06:36:29.506Z,96337.94
2022-12-05T06:41:33.569Z,96274.88
2022-12-05T06:46:36.423Z,96234.22
2022-12-05T06:51:40.548Z,96236.72
2022-12-05T06:56:43.323Z,96250.50
2022-12-05T07:01:47.102Z,96246.16
2022-12-05T07:06:52.986Z,96211.59
2022-12-05T07:11:55.865Z,96211.66
2022-12-05T07:16:58.694Z,96241.84
2022-12-05T07:22:02.829Z,96260.94
2022-12-05T07:27:06.231Z,96280.69
2022-12-05T07:32:09.308Z,96232.06
2022-12-05T07:37:14.029Z,96221.66
2022-12-05T07:42:16.802Z,96180.22
2022-12-05T07:47:19.643Z,96199.81
2022-12-05T07:52:24.094Z,95834.53
2022-12-05T07:57:26.813Z,95640.22
2022-12-05T08:02:29.635Z,95777.44
2022-12-05T08:07:33.817Z,95443.66
2022-12-05T08:12:37.868Z,95896.78
2022-12-05T08:17:40.634Z,95939.03
2022-12-05T08:22:44.704Z,96017.53
2022-12-05T08:27:47.414Z,96045.22
2022-12-05T08:32:50.330Z,96071.16
2022-12-05T08:37:54.738Z,96126.34
2022-12-05T08:42:57.474Z,96125.56
2022-12-05T08:48:00.165Z,96197.16
2022-12-05T08:53:04.263Z,96224.72
2022-12-05T08:58:07.063Z,96254.09
2022-12-05T09:03:11.337Z,96267.00
2022-12-05T09:08:15.546Z,96279.09
2022-12-05T09:13:18.335Z,96272.22
2022-12-05T09:18:21.077Z,96291.13
2022-12-05T09:23:25.324Z,96307.63
2022-12-05T09:28:28.364Z,96310.28
2022-12-05T09:33:31.907Z,96329.25
2022-12-05T09:38:36.406Z,96375.06
2022-12-05T09:43:47.324Z,96373.22
2022-12-05T09:48:50.562Z,96342.09
2022-12-05T09:53:54.987Z,96310.19
2022-12-05T09:58:58.722Z,96326.59
2022-12-05T10:04:23.667Z,96349.88
2022-12-05T10:09:39.818Z,96346.53
2022-12-05T10:14:44.140Z,96346.53
2022-12-05T10:19:48.871Z,96362.94
2022-12-05T10:24:55.934Z,96366.28
2022-12-05T10:30:01.088Z,96371.53
2022-12-05T10:35:16.679Z,96374.00
2022-12-05T10:40:20.967Z,96361.09
2022-12-05T10:45:24.986Z,96328.44
2022-12-05T10:50:30.783Z,96324.91
2022-12-05T10:55:36.230Z,96310.28
2022-12-05T11:00:44.863Z,96287.81
2022-12-05T11:05:51.172Z,96284.22
2022-12-05T11:11:04.593Z,96282.41
2022-12-05T11:16:07.845Z,96258.34
2022-12-05T11:21:12.505Z,96279.88
2022-12-05T11:26:33.274Z,96252.25
2022-12-05T11:31:36.304Z,96219.47
2022-12-05T11:36:43.928Z,96359.25
2022-12-05T11:42:01.218Z,96248.75
2022-12-05T11:47:12.896Z,96236.63
2022-12-05T11:52:23.935Z,96226.19
2022-12-05T11:57:39.849Z,96228.03
2022-12-05T12:03:05.948Z,96191.75
2022-12-05T12:08:16.863Z,96189.13
2022-12-05T12:13:29.779Z,96153.78
2022-12-05T12:18:48.584Z,96129.56
2022-12-05T12:24:01.315Z,96159.75
2022-12-05T12:29:11.679Z,96149.38
2022-12-05T12:34:30.736Z,96109.78
2022-12-05T12:39:41.727Z,96096.75
2022-12-05T12:45:16.465Z,96063.06
2022-12-05T12:50:21.156Z,96043.09
2022-12-05T12:55:26.168Z,96027.66
2022-12-05T13:00:37.395Z,96004.31
2022-12-05T13:05:44.196Z,95981.00
2022-12-05T13:10:50.661Z,95999.13
2022-12-05T13:15:57.136Z,96048.38
2022-12-05T13:21:01.684Z,96053.50
2022-12-05T13:26:09.958Z,96044.06
2022-12-05T13:31:16.947Z,96067.28
2022-12-05T13:36:38.170Z,96067.34
2022-12-05T13:42:00.304Z,96107.81
2022-12-05T13:47:07.404Z,96094.03
2022-12-05T13:52:14.330Z,96124.22
2022-12-05T13:57:52.273Z,96231.34
2022-12-05T14:02:58.814Z,96297.81
2022-12-05T14:08:04.037Z,96296.13
2022-12-05T14:13:41.214Z,96415.31
2022-12-05T14:18:49.859Z,96347.88
2022-12-05T14:24:02.881Z,96258.16
2022-12-05T14:29:19.288Z,96342.84
2022-12-05T14:34:28.092Z,96195.16
2022-12-05T14:39:36.316Z,96213.25
2022-12-05T14:44:47.536Z,96262.41
2022-12-05T14:50:02.440Z,96304.66
2022-12-05T14:55:12.091Z,96312.34
2022-12-05T15:00:21.280Z,96296.91
2022-12-05T15:05:27.450Z,96294.34
2022-12-05T15:10:34.474Z,96258.03
2022-12-05T15:15:41.630Z,96244.16
2022-12-05T15:20:50.839Z,96262.22
2022-12-05T15:25:57.291Z,96303.81
2022-12-05T15:31:02.124Z,96329.59
2022-12-05T15:36:07.074Z,96350.28
2022-12-05T15:41:17.267Z,96322.00
2022-12-05T15:46:24.300Z,96317.66
2022-12-05T15:51:33.338Z,96325.34
2022-12-05T15:56:37.981Z,96327.84
2022-12-05T16:01:43.327Z,96335.66
2022-12-05T16:06:49.392Z,96333.00
2022-12-05T16:11:54.316Z,96383.84
2022-12-05T16:17:00.507Z,96424.59
2022-12-05T16:22:09.319Z,96429.81
2022-12-05T16:27:16.326Z,96437.47
2022-12-05T16:32:22.637Z,96445.22
2022-12-05T16:37:28.295Z,96449.47
2022-12-05T16:42:31.263Z,96636.19
2022-12-05T16:47:59.772Z,96670.63
2022-12-05T16:53:16.587Z,96735.25
2022-12-05T16:58:25.032Z,96817.31
2022-12-05T17:03:35.952Z,96778.72
2022-12-05T17:08:40.282Z,96791.66
2022-12-05T17:13:45.099Z,96834.63
2022-12-05T17:18:48.063Z,96831.09
2022-12-05T17:23:52.593Z,96826.88
2022-12-05T17:28:55.321Z,96824.38
2022-12-05T17:33:58.064Z,96786.50
2022-12-05T17:39:02.167Z,96781.22
2022-12-05T17:44:05.071Z,96783.81
2022-12-05T17:49:07.817Z,96818.88
2022-12-05T17:54:11.986Z,96781.97
2022-12-05T17:59:14.726Z,96768.34
2022-12-05T18:04:22.651Z,96878.66
2022-12-05T18:09:27.340Z,96940.13
2022-12-05T18:14:30.775Z,96997.66
2022-12-05T18:19:33.524Z,96997.84
2022-12-05T18:24:37.663Z,97046.13
2022-12-05T18:29:40.510Z,97066.50
2022-12-05T18:34:43.251Z,97112.22
2022-12-05T18:39:47.367Z,97094.59
2022-12-05T18:44:50.366Z,97115.22
2022-12-05T18:49:53.148Z,97070.41
2022-12-05T18:55:15.784Z,97071.16
2022-12-05T19:00:20.305Z,97078.44
2022-12-05T19:05:23.372Z,97027.38
2022-12-05T19:10:27.486Z,96987.00
2022-12-05T19:15:30.231Z,96943.00
2022-12-05T19:20:32.997Z,96946.28
2022-12-05T19:25:37.132Z,97050.88
2022-12-05T19:30:39.853Z,97005.88
2022-12-05T19:35:42.609Z,96971.41
2022-12-05T19:40:56.143Z,96957.56
2022-12-05T19:45:59.314Z,96943.69
2022-12-05T19:51:02.704Z,96927.41
2022-12-05T19:56:15.378Z,96911.84
2022-12-05T20:01:19.676Z,96892.16
2022-12-05T20:06:23.028Z,96892.88
2022-12-05T20:11:28.976Z,96880.78
2022-12-05T20:16:33.570Z,96879.91
2022-12-05T20:21:39.421Z,96892.00
2022-12-05T20:26:45.207Z,96868.72
2022-12-05T20:31:49.647Z,97129.59
2022-12-05T20:36:52.363Z,97227.16
2022-12-05T20:41:56.474Z,97132.09
2022-12-05T20:46:59.194Z,96968.06
2022-12-05T20:52:01.849Z,96946.50
2022-12-05T20:57:05.941Z,97475.69
2022-12-05T21:02:08.645Z,97109.63
2022-12-05T21:07:11.450Z,96984.41
2022-12-05T21:12:15.496Z,96589.69
2022-12-05T21:17:18.215Z,96550.91
2022-12-05T21:22:20.943Z,96517.22
2022-12-05T21:27:25.034Z,96533.56
2022-12-05T21:32:27.752Z,96513.81
2022-12-05T21:37:30.476Z,96516.28
2022-12-05T21:42:34.855Z,96531.88
2022-12-05T21:47:37.613Z,96528.47
2022-12-05T21:52:40.589Z,96553.53
2022-12-05T21:57:44.888Z,96570.66
2022-12-05T22:02:47.924Z,96580.19
2022-12-05T22:07:50.938Z,96583.75
2022-12-05T22:12:55.117Z,96605.28
2022-12-05T22:17:57.880Z,96629.50
2022-12-05T22:23:00.573Z,96644.22
2022-12-05T22:28:04.725Z,96656.34
2022-12-05T22:33:07.436Z,96665.88
2022-12-05T22:38:10.170Z,96665.88
2022-12-05T22:43:14.354Z,96675.41
2022-12-05T22:48:17.238Z,96680.59
2022-12-05T22:53:21.331Z,96675.44
2022-12-05T22:58:25.598Z,96664.22
2022-12-05T23:03:28.463Z,96662.50
2022-12-05T23:08:31.394Z,96689.97
2022-12-05T23:13:36.466Z,96700.50
2022-12-05T23:18:47.590Z,96729.78
2022-12-05T23:23:52.818Z,96760.97
2022-12-05T23:28:57.110Z,96734.09
2022-12-05T23:34:03.531Z,96763.34
2022-12-05T23:39:06.771Z,96756.59
2022-12-05T23:44:11.247Z,96796.22
2022-12-05T23:49:14.123Z,96833.50
2022-12-05T23:54:17.053Z,96832.56
2022-12-05T23:59:21.300Z,96848.19
